Terminal Aerodrome Forecast
Issued by NWS

Home | Current Version | Previous Version | Text Only | Print | Product List | Glossary On
Versions: 1 2 3 4 5 6 7 8 9 10 11 12 13 14 15
299
FTUS44 KEPZ 261128
TAFDMN
TAF
KDMN 261128Z 2612/2712 26006KT P6SM SCT120
     FM261900 28025G35KT 3SM BLDU SCT150 SCT250
     FM270300 29012G22KT P6SM FEW150
     FM270800 30008KT P6SM SKC=

USA.gov is the U.S. government's official web portal to all federal, state and local government web resources and services.